createdAt,value
2023-01-17T00:02:03.810Z,97636.59
2023-01-17T00:07:44.095Z,97620.78
2023-01-17T00:13:04.516Z,97608.81
2023-01-17T00:18:24.932Z,97594.44
2023-01-17T00:24:04.179Z,97605.47
2023-01-17T00:29:24.482Z,97590.84
2023-01-17T00:34:44.769Z,97588.28
2023-01-17T00:40:06.741Z,97580.50
2023-01-17T00:45:46.098Z,97577.97
2023-01-17T00:51:25.257Z,97578.31
2023-01-17T00:57:04.620Z,97579.75
2023-01-17T01:02:45.106Z,97566.81
2023-01-17T01:08:44.248Z,97577.22
2023-01-17T01:14:24.682Z,97566.03
2023-01-17T01:20:03.954Z,97565.31
2023-01-17T01:25:42.788Z,97561.38
2023-01-17T01:31:23.196Z,97564.53
2023-01-17T01:36:43.976Z,97558.59
2023-01-17T01:42:10.518Z,97555.28
2023-01-17T01:47:35.414Z,97540.78
2023-01-17T01:53:00.839Z,97550.03
2023-01-17T01:58:25.334Z,97532.16
2023-01-17T02:03:47.050Z,97526.69
2023-01-17T02:09:10.983Z,97523.38
2023-01-17T02:14:32.024Z,97527.34
2023-01-17T02:20:20.135Z,97525.72
2023-01-17T02:26:04.536Z,97528.19
2023-01-17T02:31:37.388Z,97524.59
2023-01-17T02:37:02.936Z,97516.78
2023-01-17T02:42:34.908Z,97516.53
2023-01-17T02:47:55.669Z,97510.56
2023-01-17T02:53:44.184Z,97507.19
2023-01-17T02:59:13.362Z,97508.09
2023-01-17T03:04:48.181Z,97507.75
2023-01-17T03:10:11.027Z,97506.09
2023-01-17T03:15:31.573Z,97498.13
2023-01-17T03:20:52.396Z,97498.91
2023-01-17T03:26:12.815Z,97507.16
2023-01-17T03:31:33.280Z,97492.72
2023-01-17T03:36:53.313Z,97493.53
2023-01-17T03:42:13.767Z,97492.41
2023-01-17T03:47:35.073Z,97499.66
2023-01-17T03:52:55.750Z,97501.63
2023-01-17T03:58:16.516Z,97502.97
2023-01-17T04:03:37.355Z,97493.34
2023-01-17T04:08:57.831Z,97489.06
2023-01-17T04:14:18.623Z,97493.78
2023-01-17T04:19:39.218Z,97504.69
2023-01-17T04:24:59.689Z,97497.81
2023-01-17T04:30:20.632Z,97501.25
2023-01-17T04:35:41.324Z,97466.38
2023-01-17T04:41:02.165Z,97470.91
2023-01-17T04:46:22.709Z,97477.69
2023-01-17T04:51:43.487Z,97465.66
2023-01-17T04:57:04.085Z,97504.75
2023-01-17T05:02:24.597Z,97526.31
2023-01-17T05:07:52.326Z,97557.69
2023-01-17T05:13:12.843Z,97542.59
2023-01-17T05:18:33.333Z,97561.97
2023-01-17T05:23:53.917Z,97574.06
2023-01-17T05:29:14.561Z,97566.53
2023-01-17T05:34:35.073Z,97568.59
2023-01-17T05:39:55.831Z,97579.66
2023-01-17T05:45:17.760Z,97566.06
2023-01-17T05:50:38.671Z,97608.50
2023-01-17T05:55:59.141Z,97599.97
2023-01-17T06:01:23.811Z,97625.16
2023-01-17T06:06:46.833Z,97634.13
2023-01-17T06:12:08.797Z,97641.88
2023-01-17T06:17:29.248Z,97651.97
2023-01-17T06:22:50.189Z,97680.63
2023-01-17T06:28:12.396Z,97670.91
2023-01-17T06:33:33.176Z,97631.78
2023-01-17T06:38:53.862Z,97667.06
2023-01-17T06:44:14.403Z,97708.28
2023-01-17T06:49:35.105Z,97680.66
2023-01-17T06:54:56.209Z,97692.25
2023-01-17T07:00:17.363Z,97693.09
2023-01-17T07:05:37.976Z,97681.59
2023-01-17T07:11:01.499Z,97708.00
2023-01-17T07:16:21.888Z,97737.13
2023-01-17T07:21:42.461Z,97744.31
2023-01-17T07:27:03.548Z,97750.66
2023-01-17T07:32:26.501Z,97754.63
2023-01-17T07:37:50.964Z,97772.13
2023-01-17T07:43:14.864Z,97772.38
2023-01-17T07:48:35.756Z,97777.53
2023-01-17T07:53:56.490Z,97770.97
2023-01-17T07:59:18.029Z,97778.81
2023-01-17T08:04:38.810Z,97804.22
2023-01-17T08:10:00.745Z,97804.44
2023-01-17T08:15:21.722Z,97810.38
2023-01-17T08:20:45.356Z,97812.53
2023-01-17T08:26:06.129Z,97795.63
2023-01-17T08:31:31.342Z,97797.59
2023-01-17T08:36:52.820Z,97809.75
2023-01-17T08:42:13.205Z,97821.06
2023-01-17T08:47:34.528Z,97851.31
2023-01-17T08:53:01.128Z,97851.84
2023-01-17T08:58:22.631Z,97865.53
2023-01-17T09:03:43.525Z,97854.81
2023-01-17T09:09:05.214Z,97877.84
2023-01-17T09:14:25.618Z,97878.81
2023-01-17T09:19:49.179Z,97886.28
2023-01-17T09:25:10.096Z,97909.75
2023-01-17T09:30:30.415Z,97885.06
2023-01-17T09:35:50.957Z,97912.34
2023-01-17T09:41:28.854Z,97922.34
2023-01-17T09:46:54.310Z,97926.59
2023-01-17T09:52:18.880Z,97914.19
2023-01-17T09:57:57.570Z,97925.25
2023-01-17T10:03:41.797Z,97930.75
2023-01-17T10:09:29.609Z,97946.09
2023-01-17T10:15:32.228Z,97943.81
2023-01-17T10:21:03.502Z,97947.78
2023-01-17T10:26:25.464Z,97951.19
2023-01-17T10:31:55.703Z,97960.13
2023-01-17T10:37:19.359Z,97948.94
2023-01-17T10:43:22.617Z,97987.72
2023-01-17T10:48:45.985Z,97985.28
2023-01-17T10:54:28.207Z,97972.44
2023-01-17T10:59:49.627Z,97975.31
2023-01-17T11:05:28.725Z,97975.47
2023-01-17T11:10:54.172Z,97972.50
2023-01-17T11:16:23.034Z,97977.69
2023-01-17T11:21:55.942Z,97972.66
2023-01-17T11:27:28.223Z,97982.16
2023-01-17T11:32:53.975Z,97985.47
2023-01-17T11:38:22.031Z,97985.56
2023-01-17T11:43:56.548Z,97985.56
2023-01-17T11:49:25.529Z,97968.16
2023-01-17T11:54:48.324Z,97966.66
2023-01-17T12:00:08.800Z,97977.03
2023-01-17T12:05:53.499Z,97968.28
2023-01-17T12:11:22.651Z,97996.63
2023-01-17T12:16:59.747Z,98000.41
2023-01-17T12:22:40.767Z,97998.38
2023-01-17T12:28:29.014Z,97992.22
2023-01-17T12:34:01.322Z,98005.59
2023-01-17T12:39:28.883Z,98001.59
2023-01-17T12:44:50.042Z,98015.59
2023-01-17T12:51:02.647Z,98005.56
2023-01-17T12:56:44.478Z,97985.69
2023-01-17T13:02:22.686Z,98005.34
2023-01-17T13:07:55.151Z,98004.72
2023-01-17T13:13:22.304Z,98011.69
2023-01-17T13:18:46.273Z,98016.56
2023-01-17T13:24:17.871Z,98067.41
2023-01-17T13:29:47.576Z,98069.50
2023-01-17T13:35:42.022Z,98087.44
2023-01-17T13:41:08.507Z,98072.94
2023-01-17T13:46:51.965Z,98054.53
2023-01-17T13:52:18.391Z,98075.00
2023-01-17T13:57:43.537Z,98061.03
2023-01-17T14:03:04.962Z,98075.34
2023-01-17T14:08:27.198Z,98031.81
2023-01-17T14:13:49.637Z,98078.16
2023-01-17T14:19:25.966Z,98060.22
2023-01-17T14:25:00.277Z,98081.09
2023-01-17T14:30:28.379Z,98103.03
2023-01-17T14:35:52.720Z,98093.06
2023-01-17T14:41:19.064Z,98088.97
2023-01-17T14:46:39.608Z,98093.63
2023-01-17T14:52:04.774Z,98094.59
2023-01-17T14:57:28.196Z,98091.13
2023-01-17T15:02:50.589Z,98088.78
2023-01-17T15:08:17.450Z,98095.78
2023-01-17T15:13:47.396Z,98110.13
2023-01-17T15:19:13.025Z,98143.59
2023-01-17T15:24:40.988Z,98132.97
2023-01-17T15:30:03.980Z,98128.66
2023-01-17T15:35:25.221Z,98125.81
2023-01-17T15:40:46.605Z,98125.06
2023-01-17T15:46:07.329Z,98091.41
2023-01-17T15:51:38.610Z,98098.56
2023-01-17T15:57:18.026Z,98092.50
2023-01-17T16:02:43.729Z,98113.47
2023-01-17T16:08:04.558Z,98108.16
2023-01-17T16:13:24.941Z,98120.66
2023-01-17T16:18:46.716Z,98124.69
2023-01-17T16:24:09.644Z,98127.78
2023-01-17T16:29:30.230Z,98129.25
2023-01-17T16:34:51.035Z,98118.06
2023-01-17T16:40:12.291Z,98126.69
2023-01-17T16:45:40.981Z,98108.81
2023-01-17T16:51:05.757Z,98138.13
2023-01-17T16:56:26.281Z,98122.84
2023-01-17T17:01:48.431Z,98139.88
2023-01-17T17:07:09.196Z,98134.72
2023-01-17T17:12:29.944Z,98109.50
2023-01-17T17:17:51.077Z,98151.09
2023-01-17T17:23:12.457Z,98138.16
2023-01-17T17:28:33.162Z,98145.72
2023-01-17T17:33:58.874Z,98166.09
2023-01-17T17:39:19.664Z,98156.78
2023-01-17T17:44:40.446Z,98170.44
2023-01-17T17:50:00.907Z,98174.88
2023-01-17T17:55:21.893Z,98174.00
2023-01-17T18:00:42.608Z,98177.44
2023-01-17T18:06:06.232Z,98189.09
2023-01-17T18:11:27.908Z,98194.00
2023-01-17T18:16:48.564Z,98200.72
2023-01-17T18:22:09.176Z,98212.47
2023-01-17T18:27:29.847Z,98211.50
2023-01-17T18:32:51.120Z,98220.88
2023-01-17T18:38:11.840Z,98210.00
2023-01-17T18:43:32.797Z,98220.16
2023-01-17T18:48:56.983Z,98228.16
2023-01-17T18:54:19.456Z,98227.41
2023-01-17T18:59:40.144Z,98230.75
2023-01-17T19:05:05.461Z,98244.13
2023-01-17T19:10:25.871Z,98252.59
2023-01-17T19:15:46.333Z,98262.16
2023-01-17T19:21:12.751Z,98264.63
2023-01-17T19:26:34.137Z,98262.66
2023-01-17T19:31:55.203Z,98270.59
2023-01-17T19:37:15.830Z,98268.63
2023-01-17T19:42:36.729Z,98278.75
2023-01-17T19:47:58.234Z,98279.69
2023-01-17T19:53:19.218Z,98267.94
2023-01-17T19:58:40.957Z,98276.53
2023-01-17T20:04:02.826Z,98289.38
2023-01-17T20:09:25.028Z,98290.50
2023-01-17T20:14:45.813Z,98279.34
2023-01-17T20:20:07.493Z,98288.66
2023-01-17T20:25:28.318Z,98297.34
2023-01-17T20:30:49.237Z,98303.50
2023-01-17T20:36:12.703Z,98298.50
2023-01-17T20:41:36.683Z,98277.44
2023-01-17T20:46:57.556Z,98292.50
2023-01-17T20:52:18.262Z,98311.22
2023-01-17T20:57:39.248Z,98333.88
2023-01-17T21:03:00.508Z,98357.06
2023-01-17T21:08:21.429Z,98355.88
2023-01-17T21:13:43.000Z,98365.13
2023-01-17T21:19:04.065Z,98358.50
2023-01-17T21:24:24.639Z,98349.38
2023-01-17T21:29:45.773Z,98356.13
2023-01-17T21:35:07.755Z,98359.25
2023-01-17T21:40:28.581Z,98362.16
2023-01-17T21:45:51.050Z,98371.13
2023-01-17T21:51:11.712Z,98373.50
2023-01-17T21:56:51.207Z,98385.25
2023-01-17T22:02:11.671Z,98396.16
2023-01-17T22:07:33.338Z,98392.91
2023-01-17T22:12:54.011Z,98406.63
2023-01-17T22:18:15.219Z,98419.25
2023-01-17T22:23:36.501Z,98437.66
2023-01-17T22:29:00.934Z,98436.09
2023-01-17T22:34:22.768Z,98437.63
2023-01-17T22:39:43.558Z,98455.22
2023-01-17T22:45:06.794Z,98440.81
2023-01-17T22:50:27.292Z,98438.00
2023-01-17T22:55:47.865Z,98447.41
2023-01-17T23:01:14.034Z,98451.59
2023-01-17T23:06:37.645Z,98455.59
2023-01-17T23:11:58.562Z,98457.66
2023-01-17T23:17:39.564Z,98440.59
2023-01-17T23:23:00.331Z,98448.94
2023-01-17T23:28:21.040Z,98455.53
2023-01-17T23:33:41.563Z,98468.88
2023-01-17T23:39:02.090Z,98471.19
2023-01-17T23:44:23.202Z,98470.88
2023-01-17T23:49:45.429Z,98475.47
2023-01-17T23:55:06.521Z,98492.47
